createdAt,value
2019-02-17T05:03:44.154Z,102274.25
2019-02-17T05:07:12.101Z,102283.42
2019-02-17T05:10:40.053Z,102284.29
2019-02-17T05:14:07.957Z,102290.68
2019-02-17T05:17:35.858Z,102294.01
2019-02-17T05:21:03.780Z,102300.09
2019-02-17T05:24:31.836Z,102299.85
2019-02-17T05:27:59.912Z,102300.03
2019-02-17T05:31:28.745Z,102297.89
2019-02-17T05:34:58.948Z,102298.64
2019-02-17T05:38:25.582Z,102295.43
2019-02-17T05:41:53.560Z,102299.13
2019-02-17T05:45:21.670Z,102307.78
2019-02-17T05:48:49.672Z,102306.8
2019-02-17T05:52:17.589Z,102306.8
2019-02-17T05:55:45.551Z,102303.28
2019-02-17T05:59:13.547Z,102311.75
2019-02-17T06:02:41.452Z,102315.45
2019-02-17T06:06:09.467Z,102310.15
2019-02-17T06:09:38.377Z,102315.12
2019-02-17T06:13:06.649Z,102317.39
2019-02-17T06:16:34.573Z,102323.17
2019-02-17T06:20:03.438Z,102322.85
2019-02-17T06:23:31.421Z,102324.44
2019-02-17T06:27:00.374Z,102328.92
2019-02-17T06:30:28.256Z,102326.68
2019-02-17T06:33:56.191Z,102331.34
2019-02-17T06:37:24.069Z,102333.92
2019-02-17T06:40:52.072Z,102335.01
2019-02-17T06:44:19.992Z,102339.69
2019-02-17T06:47:47.969Z,102343.06
2019-02-17T06:51:15.900Z,102339.66
2019-02-17T06:54:43.805Z,102338.48
2019-02-17T06:58:11.696Z,102335.12
2019-02-17T07:01:39.639Z,102336.21
2019-02-17T07:05:07.582Z,102338.12
2019-02-17T07:08:35.574Z,102341.15
2019-02-17T07:12:03.513Z,102342.26
2019-02-17T07:15:31.445Z,102344.94
2019-02-17T07:18:59.372Z,102350.09
2019-02-17T07:22:27.374Z,102356.32
2019-02-17T07:25:55.311Z,102356.62
2019-02-17T07:29:23.328Z,102362.85
2019-02-17T07:32:52.277Z,102363.15
2019-02-17T07:36:22.020Z,102362.64
2019-02-17T07:39:49.200Z,102369.53
2019-02-17T07:43:17.122Z,102358.81
2019-02-17T07:46:45.025Z,102354.25
2019-02-17T07:50:13.078Z,102356.12
2019-02-17T07:53:41.017Z,102356.03
2019-02-17T07:57:08.971Z,102360.78
2019-02-17T08:00:36.966Z,102368.78
2019-02-17T08:04:04.868Z,102368.26
2019-02-17T08:07:32.866Z,102375.78
2019-02-17T08:11:04.146Z,102374.11
2019-02-17T08:14:31.933Z,102376.78
2019-02-17T08:17:59.806Z,102376.43
2019-02-17T08:21:28.781Z,102380.42
2019-02-17T08:24:56.779Z,102382.17
2019-02-17T08:28:25.788Z,102380.32
2019-02-17T08:31:56.825Z,102382.1
2019-02-17T08:35:24.999Z,102385.43
2019-02-17T08:38:52.969Z,102394.75
2019-02-17T08:42:22.027Z,102391.32
2019-02-17T08:45:50.117Z,102389.84
2019-02-17T08:49:18.117Z,102393.32
2019-02-17T08:52:46.042Z,102389.26
2019-02-17T08:56:13.941Z,102394.35
2019-02-17T08:59:42.899Z,102395.42
2019-02-17T09:03:10.820Z,102394.73
2019-02-17T09:06:38.725Z,102397.07
2019-02-17T09:10:06.699Z,102392.48
2019-02-17T09:13:34.630Z,102389.65
2019-02-17T09:17:03.497Z,102398.46
2019-02-17T09:20:31.363Z,102399.23
2019-02-17T09:23:59.280Z,102408.84
2019-02-17T09:27:28.206Z,102403.95
2019-02-17T09:30:56.106Z,102406.81
2019-02-17T09:34:24.062Z,102407.92
2019-02-17T09:37:51.989Z,102409.12
2019-02-17T09:41:19.888Z,102409.65
2019-02-17T09:44:48.000Z,102403.08
2019-02-17T09:48:15.791Z,102400.07
2019-02-17T09:51:43.706Z,102402.25
2019-02-17T09:55:12.614Z,102402.96
2019-02-17T09:58:40.596Z,102409.5
2019-02-17T10:02:08.507Z,102403.44
2019-02-17T10:05:36.411Z,102405.15
2019-02-17T10:09:04.319Z,102410.57
2019-02-17T10:12:32.255Z,102412.84
2019-02-17T10:16:01.144Z,102416.59
2019-02-17T10:19:29.090Z,102415.12
2019-02-17T10:22:56.997Z,102419.5
2019-02-17T10:26:26.854Z,102414.76
2019-02-17T10:29:54.765Z,102413.63
2019-02-17T10:33:22.698Z,102413.71
2019-02-17T10:36:50.671Z,102424.18
2019-02-17T10:40:18.574Z,102420.57
2019-02-17T10:43:46.564Z,102421.68
2019-02-17T10:47:14.524Z,102419.36
2019-02-17T10:50:42.378Z,102417.18
2019-02-17T10:54:10.297Z,102413.42
2019-02-17T10:57:38.320Z,102416.09
2019-02-17T11:01:06.254Z,102406.29
2019-02-17T11:04:34.168Z,102409.61
2019-02-17T11:08:03.886Z,102410.24
2019-02-17T11:11:31.772Z,102410.67
2019-02-17T11:14:59.676Z,102407.51
2019-02-17T11:18:27.585Z,102399.79
2019-02-17T11:21:55.493Z,102406.05
2019-02-17T11:25:23.419Z,102401.41
2019-02-17T11:28:51.323Z,102399.35
2019-02-17T11:32:19.216Z,102398.14
2019-02-17T11:35:47.143Z,102394.51
2019-02-17T11:39:15.046Z,102390.25
2019-02-17T11:42:42.920Z,102385.1
2019-02-17T11:46:10.870Z,102376.17
2019-02-17T11:49:38.789Z,102376.89
2019-02-17T11:53:06.710Z,102375.87
2019-02-17T11:56:35.575Z,102376.93
2019-02-17T12:00:04.458Z,102374.71
2019-02-17T12:03:32.343Z,102377.53
2019-02-17T12:07:01.229Z,102369.07
2019-02-17T12:10:29.127Z,102374.39
2019-02-17T12:13:59.047Z,102373.64
2019-02-17T12:17:27.016Z,102370.95
2019-02-17T12:20:56.806Z,102365.76
2019-02-17T12:24:24.904Z,102365.6
2019-02-17T12:27:53.403Z,102362.26
2019-02-17T12:31:21.417Z,102360.34
2019-02-17T12:34:49.493Z,102355.48
2019-02-17T12:38:17.473Z,102354.92
2019-02-17T12:41:46.491Z,102353.23
2019-02-17T12:45:18.191Z,102357.96
2019-02-17T12:48:44.682Z,102354.81
2019-02-17T12:52:12.580Z,102356.43
2019-02-17T12:55:40.625Z,102353.02
2019-02-17T12:59:09.629Z,102348.25
2019-02-17T13:02:37.664Z,102348.05
2019-02-17T13:06:05.686Z,102340.82
2019-02-17T13:09:34.595Z,102339.15
2019-02-17T13:13:04.677Z,102338.01
2019-02-17T13:16:31.586Z,102344.51
2019-02-17T13:19:59.701Z,102337.89
2019-02-17T13:23:27.869Z,102339.75
2019-02-17T13:26:56.786Z,102340.43
2019-02-17T13:30:24.797Z,102334.76
2019-02-17T13:33:52.745Z,102331.06
2019-02-17T13:37:20.783Z,102323.67
2019-02-17T13:40:48.827Z,102324.48
2019-02-17T13:44:16.751Z,102322.89
2019-02-17T13:47:44.751Z,102325.98
2019-02-17T13:51:12.756Z,102325.75
2019-02-17T13:54:40.733Z,102322.75
2019-02-17T13:58:08.776Z,102317.14
2019-02-17T14:01:36.801Z,102314.1
2019-02-17T14:05:05.609Z,102315.43
2019-02-17T14:08:33.660Z,102306.9
2019-02-17T14:12:01.699Z,102308.56
2019-02-17T14:15:29.695Z,102301.7
2019-02-17T14:18:57.615Z,102297.51
2019-02-17T14:22:25.495Z,102294.76
2019-02-17T14:25:53.413Z,102293.5
2019-02-17T14:29:21.297Z,102290
2019-02-17T14:32:49.256Z,102295.06
2019-02-17T14:36:17.158Z,102293.02
2019-02-17T14:39:45.052Z,102286.77
2019-02-17T14:43:12.997Z,102281.98
2019-02-17T14:46:41.198Z,102278.76
2019-02-17T14:50:09.399Z,102280.91
2019-02-17T14:53:37.380Z,102278.54
2019-02-17T14:57:06.058Z,102278.65
2019-02-17T15:00:34.021Z,102280.4
2019-02-17T15:04:08.602Z,102288.21
2019-02-17T15:07:34.013Z,102286.89
2019-02-17T15:11:01.979Z,102287.63
2019-02-17T15:14:30.005Z,102279.46
2019-02-17T15:17:57.992Z,102281
2019-02-17T15:21:25.944Z,102277.23
2019-02-17T15:24:54.533Z,102275.29
2019-02-17T15:28:22.866Z,102276.95
2019-02-17T15:31:51.916Z,102269.56
2019-02-17T15:35:22.258Z,102273.15
2019-02-17T15:38:49.018Z,102268.84
2019-02-17T15:42:17.014Z,102267.67
2019-02-17T15:45:45.022Z,102269.56
2019-02-17T15:49:12.931Z,102257.4
2019-02-17T15:52:40.936Z,102254.35
2019-02-17T15:56:08.879Z,102249.89
2019-02-17T15:59:36.806Z,102247.46
2019-02-17T16:03:04.747Z,102249.17
2019-02-17T16:06:32.881Z,102251.93
2019-02-17T16:10:00.920Z,102257
2019-02-17T16:13:30.766Z,102254.26
2019-02-17T16:17:01.018Z,102252.91
2019-02-17T16:20:29.660Z,102252
2019-02-17T16:23:58.545Z,102247.71
2019-02-17T16:27:26.534Z,102249.39
2019-02-17T16:30:54.411Z,102256.68
2019-02-17T16:34:22.575Z,102255.59
2019-02-17T16:37:50.672Z,102250.73
2019-02-17T16:41:18.649Z,102254.15
2019-02-17T16:44:46.592Z,102255.12
2019-02-17T16:48:15.761Z,102249.32
2019-02-17T16:51:44.256Z,102251.26
2019-02-17T16:55:12.206Z,102246.92
2019-02-17T16:58:40.159Z,102245.12
2019-02-17T17:02:08.063Z,102248.68
2019-02-17T17:05:35.962Z,102251.7
2019-02-17T17:09:04.861Z,102245.73
2019-02-17T17:12:33.761Z,102240.21
2019-02-17T17:16:01.631Z,102237.89
2019-02-17T17:19:29.547Z,102241.09
2019-02-17T17:22:57.464Z,102243.44
2019-02-17T17:26:25.373Z,102244.04
2019-02-17T17:29:53.267Z,102238.98
2019-02-17T17:33:21.214Z,102234.73
2019-02-17T17:36:49.131Z,102238.99
2019-02-17T17:40:18.013Z,102237.76
2019-02-17T17:43:47.443Z,102240.1
2019-02-17T17:47:15.332Z,102238.55
2019-02-17T17:50:43.441Z,102232.81
2019-02-17T17:54:11.656Z,102233.01
2019-02-17T17:57:40.591Z,102233.7
2019-02-17T18:01:09.528Z,102225.7
2019-02-17T18:04:37.533Z,102228.5
2019-02-17T18:08:05.582Z,102229.52
2019-02-17T18:11:33.607Z,102234.37
2019-02-17T18:15:03.807Z,102231.36
2019-02-17T18:18:32.600Z,102231.21
2019-02-17T18:22:01.211Z,102229.96
2019-02-17T18:25:31.818Z,102229.2
2019-02-17T18:28:59.874Z,102232.1
2019-02-17T18:32:27.885Z,102237.14
2019-02-17T18:35:55.980Z,102232
2019-02-17T18:39:24.006Z,102230.9
2019-02-17T18:42:52.168Z,102232.4
2019-02-17T18:46:20.151Z,102231.44
2019-02-17T18:49:49.081Z,102232.28
2019-02-17T18:53:17.366Z,102232.9
2019-02-17T18:56:46.385Z,102238.89
2019-02-17T19:00:14.445Z,102237.62
2019-02-17T19:03:42.433Z,102228.82
2019-02-17T19:07:10.479Z,102228
2019-02-17T19:10:38.583Z,102225.14
2019-02-17T19:14:07.115Z,102226.41
2019-02-17T19:17:35.105Z,102226.25
2019-02-17T19:21:03.893Z,102229.02
2019-02-17T19:24:31.821Z,102222.1
2019-02-17T19:27:59.850Z,102222.46
2019-02-17T19:31:28.934Z,102223.28
2019-02-17T19:34:57.772Z,102221.5
2019-02-17T19:38:26.841Z,102221.82
2019-02-17T19:41:54.855Z,102224.59
2019-02-17T19:45:22.802Z,102219.12
2019-02-17T19:48:50.725Z,102221.53
2019-02-17T19:52:18.699Z,102225.04
2019-02-17T19:55:46.835Z,102224.43
2019-02-17T19:59:15.931Z,102230.53
2019-02-17T20:02:44.881Z,102222.18
2019-02-17T20:06:13.866Z,102231.17
2019-02-17T20:09:42.921Z,102231.65
2019-02-17T20:13:10.989Z,102228.11
2019-02-17T20:16:39.157Z,102225.21
2019-02-17T20:20:07.265Z,102225.89
2019-02-17T20:23:35.274Z,102221.57
2019-02-17T20:27:03.327Z,102216.25
2019-02-17T20:30:31.370Z,102212.86
2019-02-17T20:33:59.521Z,102214.8
2019-02-17T20:37:27.558Z,102211.9
2019-02-17T20:40:55.574Z,102208.37
2019-02-17T20:44:24.532Z,102209.82
2019-02-17T20:47:52.432Z,102209.82
2019-02-17T20:51:20.365Z,102205.2
2019-02-17T20:54:48.310Z,102200.37
2019-02-17T20:58:16.166Z,102199.72
2019-02-17T21:01:45.070Z,102189.45
2019-02-17T21:05:12.982Z,102191.68
2019-02-17T21:08:40.901Z,102189.92
2019-02-17T21:12:08.881Z,102187.03
2019-02-17T21:15:36.778Z,102179.81
2019-02-17T21:19:04.670Z,102178.04
2019-02-17T21:22:32.571Z,102177.06
2019-02-17T21:26:00.491Z,102170.81
2019-02-17T21:29:28.378Z,102172.9
2019-02-17T21:32:57.275Z,102170.64
2019-02-17T21:36:25.177Z,102164.86
2019-02-17T21:39:53.061Z,102160.52
2019-02-17T21:43:20.968Z,102152.01
2019-02-17T21:46:48.875Z,102155.39
2019-02-17T21:50:16.831Z,102146.23
2019-02-17T21:53:44.681Z,102151.53
2019-02-17T21:57:12.579Z,102151.52
2019-02-17T22:00:40.504Z,102146.57
2019-02-17T22:04:08.377Z,102145.6
2019-02-17T22:07:37.252Z,102128.72
2019-02-17T22:11:05.158Z,102134.51
2019-02-17T22:14:33.051Z,102130.5
2019-02-17T22:18:00.958Z,102138.39
2019-02-17T22:21:28.850Z,102133.09
2019-02-17T22:24:56.782Z,102132.95
2019-02-17T22:28:24.688Z,102127.46
2019-02-17T22:31:52.593Z,102126.68
2019-02-17T22:35:20.487Z,102132.78
2019-02-17T22:38:48.382Z,102131.17
2019-02-17T22:42:16.455Z,102138.9
2019-02-17T22:45:44.365Z,102138.91
2019-02-17T22:49:12.318Z,102136
2019-02-17T22:52:40.197Z,102135.53
2019-02-17T22:56:08.092Z,102130.72
2019-02-17T22:59:35.997Z,102129.77
